createdAt,value
2023-03-27T00:03:36.988Z,2.80
2023-03-27T00:08:40.826Z,2.78
2023-03-27T00:13:49.739Z,2.70
2023-03-27T00:18:55.767Z,2.60
2023-03-27T00:24:00.692Z,2.50
2023-03-27T00:29:04.812Z,2.48
2023-03-27T00:34:07.930Z,2.38
2023-03-27T00:39:11.534Z,2.30
2023-03-27T00:44:31.441Z,2.12
2023-03-27T00:49:37.626Z,2.20
2023-03-27T00:54:41.860Z,2.20
2023-03-27T00:59:47.845Z,2.20
2023-03-27T01:04:51.655Z,2.10
2023-03-27T01:09:55.063Z,2.00
2023-03-27T01:15:15.997Z,1.96
2023-03-27T01:20:59.916Z,1.90
2023-03-27T01:26:18.411Z,1.76
2023-03-27T01:32:01.247Z,1.70
2023-03-27T01:37:13.615Z,1.60
2023-03-27T01:42:51.187Z,1.66
2023-03-27T01:48:32.200Z,1.70
2023-03-27T01:53:49.724Z,1.70
2023-03-27T01:59:28.059Z,1.60
2023-03-27T02:05:04.140Z,1.50
2023-03-27T02:10:15.501Z,1.50
2023-03-27T02:15:25.309Z,1.50
2023-03-27T02:20:29.022Z,1.60
2023-03-27T02:25:37.203Z,1.60
2023-03-27T02:31:06.335Z,1.80
2023-03-27T02:36:55.218Z,1.90
2023-03-27T02:42:54.315Z,2.00
2023-03-27T02:48:34.310Z,1.90
2023-03-27T02:54:04.606Z,1.90
2023-03-27T02:59:19.679Z,1.90
2023-03-27T03:04:30.065Z,2.00
2023-03-27T03:09:33.195Z,2.00
2023-03-27T03:14:44.331Z,2.00
2023-03-27T03:19:47.607Z,2.00
2023-03-27T03:24:51.289Z,1.90
2023-03-27T03:29:56.984Z,1.96
2023-03-27T03:35:01.855Z,2.10
2023-03-27T03:40:13.506Z,2.10
2023-03-27T03:45:17.825Z,2.20
2023-03-27T03:50:21.169Z,2.16
2023-03-27T03:55:25.877Z,2.10
2023-03-27T04:00:28.999Z,2.10
2023-03-27T04:05:32.211Z,2.18
2023-03-27T04:10:39.585Z,2.16
2023-03-27T04:15:43.704Z,2.30
2023-03-27T04:20:51.140Z,2.30
2023-03-27T04:25:54.421Z,2.40
2023-03-27T04:30:58.621Z,2.40
2023-03-27T04:36:05.457Z,2.30
2023-03-27T04:41:10.742Z,2.30
2023-03-27T04:46:13.904Z,2.40
2023-03-27T04:51:16.954Z,2.40
2023-03-27T04:56:20.098Z,2.50
2023-03-27T05:01:23.276Z,2.42
2023-03-27T05:06:26.682Z,2.46
2023-03-27T05:11:29.793Z,2.40
2023-03-27T05:16:36.169Z,2.50
2023-03-27T05:21:39.897Z,2.60
2023-03-27T05:26:43.759Z,2.50
2023-03-27T05:31:46.849Z,2.50
2023-03-27T05:36:51.389Z,2.50
2023-03-27T05:41:54.582Z,2.50
2023-03-27T05:46:58.001Z,2.62
2023-03-27T05:52:01.512Z,2.70
2023-03-27T05:57:04.690Z,2.70
2023-03-27T06:02:09.266Z,2.70
2023-03-27T06:07:12.989Z,2.80
2023-03-27T06:12:16.488Z,3.00
2023-03-27T06:17:19.616Z,3.20
2023-03-27T06:22:23.550Z,3.12
2023-03-27T06:27:27.144Z,3.20
2023-03-27T06:32:30.476Z,3.30
2023-03-27T06:37:37.172Z,3.30
2023-03-27T06:42:41.707Z,3.30
2023-03-27T06:48:15.342Z,3.42
2023-03-27T06:53:27.441Z,3.40
2023-03-27T06:58:31.769Z,3.30
2023-03-27T07:03:35.042Z,3.42
2023-03-27T07:08:38.390Z,3.40
2023-03-27T07:13:41.785Z,3.50
2023-03-27T07:18:44.901Z,3.56
2023-03-27T07:23:48.104Z,3.70
2023-03-27T07:28:52.151Z,3.90
2023-03-27T07:33:58.164Z,4.00
2023-03-27T07:39:01.632Z,4.20
2023-03-27T07:44:04.832Z,4.30
2023-03-27T07:49:08.994Z,4.50
2023-03-27T07:54:13.717Z,4.40
2023-03-27T07:59:16.812Z,4.34
2023-03-27T08:04:20.729Z,4.46
2023-03-27T08:09:23.956Z,4.60
2023-03-27T08:14:27.788Z,4.80
2023-03-27T08:19:33.742Z,5.08
2023-03-27T08:24:36.952Z,5.10
2023-03-27T08:29:40.103Z,5.10
2023-03-27T08:34:43.163Z,5.10
2023-03-27T08:39:47.131Z,5.00
2023-03-27T08:44:55.110Z,5.00
2023-03-27T08:50:01.165Z,5.26
2023-03-27T08:55:18.980Z,5.70
2023-03-27T09:00:38.781Z,5.70
2023-03-27T09:05:55.966Z,5.66
2023-03-27T09:11:21.654Z,5.60
2023-03-27T09:16:51.954Z,5.70
2023-03-27T09:22:20.584Z,5.90
2023-03-27T09:27:34.643Z,6.00
2023-03-27T09:32:43.716Z,6.30
2023-03-27T09:37:50.753Z,6.40
2023-03-27T09:42:54.897Z,6.50
2023-03-27T09:48:05.613Z,6.40
2023-03-27T09:53:19.337Z,6.30
2023-03-27T09:58:32.617Z,6.10
2023-03-27T10:03:54.693Z,5.90
2023-03-27T10:09:07.375Z,5.50
2023-03-27T10:14:18.902Z,5.00
2023-03-27T10:19:35.714Z,4.78
2023-03-27T10:24:46.014Z,4.76
2023-03-27T10:29:49.697Z,4.70
2023-03-27T10:34:58.277Z,4.70
2023-03-27T10:40:04.021Z,4.70
2023-03-27T10:45:19.906Z,4.60
2023-03-27T10:50:33.864Z,4.50
2023-03-27T10:55:45.281Z,4.36
2023-03-27T11:01:06.463Z,4.20
2023-03-27T11:06:17.609Z,4.10
2023-03-27T11:12:10.662Z,3.80
2023-03-27T11:17:21.244Z,3.60
2023-03-27T11:22:43.296Z,3.50
2023-03-27T11:28:16.129Z,3.38
2023-03-27T11:33:49.610Z,3.26
2023-03-27T11:39:54.193Z,2.80
2023-03-27T11:44:58.969Z,2.46
2023-03-27T11:50:29.776Z,2.56
2023-03-27T11:56:13.129Z,2.70
2023-03-27T12:01:37.860Z,2.70
2023-03-27T12:07:05.934Z,2.60
2023-03-27T12:12:17.936Z,2.76
2023-03-27T12:17:31.302Z,3.00
2023-03-27T12:22:40.232Z,3.10
2023-03-27T12:27:55.233Z,3.30
2023-03-27T12:33:24.269Z,3.30
2023-03-27T12:38:41.460Z,3.30
2023-03-27T12:43:47.886Z,3.30
2023-03-27T12:48:57.399Z,3.12
2023-03-27T12:54:24.273Z,3.00
2023-03-27T12:59:31.878Z,3.06
2023-03-27T13:04:53.332Z,3.30
2023-03-27T13:10:34.108Z,3.40
2023-03-27T13:15:59.236Z,3.50
2023-03-27T13:21:16.710Z,3.30
2023-03-27T13:26:44.245Z,3.24
2023-03-27T13:31:47.660Z,3.20
2023-03-27T13:37:06.558Z,3.30
2023-03-27T13:42:17.485Z,3.64
2023-03-27T13:47:36.042Z,3.80
2023-03-27T13:53:16.992Z,3.60
2023-03-27T13:58:33.006Z,3.30
2023-03-27T14:04:17.681Z,3.10
2023-03-27T14:09:48.032Z,2.90
2023-03-27T14:15:15.599Z,2.96
2023-03-27T14:20:34.482Z,3.50
2023-03-27T14:25:45.266Z,4.00
2023-03-27T14:30:49.601Z,4.10
2023-03-27T14:35:57.534Z,3.90
2023-03-27T14:41:17.418Z,3.40
2023-03-27T14:46:24.177Z,3.08
2023-03-27T14:51:42.310Z,3.00
2023-03-27T14:56:47.959Z,3.04
2023-03-27T15:01:55.046Z,2.90
2023-03-27T15:07:28.933Z,2.80
2023-03-27T15:12:35.451Z,2.60
2023-03-27T15:17:39.003Z,2.40
2023-03-27T15:23:00.328Z,2.40
2023-03-27T15:28:14.471Z,2.38
2023-03-27T15:33:34.790Z,2.60
2023-03-27T15:38:39.115Z,2.50
2023-03-27T15:43:44.057Z,2.20
2023-03-27T15:48:55.587Z,2.10
2023-03-27T15:53:59.305Z,2.00
2023-03-27T15:59:08.026Z,1.90
2023-03-27T16:04:17.542Z,1.90
2023-03-27T16:09:23.658Z,1.82
2023-03-27T16:14:41.006Z,1.90
2023-03-27T16:19:55.656Z,1.80
2023-03-27T16:25:01.798Z,1.80
2023-03-27T16:30:08.560Z,1.70
2023-03-27T16:35:11.946Z,1.60
2023-03-27T16:40:15.790Z,1.50
2023-03-27T16:45:18.994Z,1.40
2023-03-27T16:50:26.915Z,1.30
2023-03-27T16:55:30.066Z,1.20
2023-03-27T17:00:33.324Z,1.08
2023-03-27T17:05:36.644Z,1.00
2023-03-27T17:10:39.852Z,0.90
2023-03-27T17:15:42.974Z,0.90
2023-03-27T17:20:46.468Z,0.80
2023-03-27T17:25:50.612Z,0.70
2023-03-27T17:31:04.869Z,0.60
2023-03-27T17:36:14.918Z,0.50
2023-03-27T17:41:19.075Z,0.50
2023-03-27T17:46:22.316Z,0.40
2023-03-27T17:51:25.497Z,0.40
2023-03-27T17:56:28.614Z,0.30
2023-03-27T18:09:43.131Z,0.18
2023-03-27T18:14:46.842Z,0.16
2023-03-27T18:19:49.953Z,0.10
2023-03-27T18:24:53.156Z,0.02
2023-03-27T18:29:56.366Z,0.00
2023-03-27T18:34:59.565Z,-0.10
2023-03-27T18:40:02.779Z,-0.10
2023-03-27T18:45:08.835Z,-0.20
2023-03-27T18:50:14.771Z,-0.22
2023-03-27T18:55:18.446Z,-0.30
2023-03-27T19:00:22.052Z,-0.30
2023-03-27T19:05:25.269Z,-0.40
2023-03-27T19:10:28.578Z,-0.40
2023-03-27T19:15:32.441Z,-0.40
2023-03-27T19:20:35.931Z,-0.40
2023-03-27T19:25:39.033Z,-0.50
2023-03-27T19:30:43.091Z,-0.50
2023-03-27T19:35:46.592Z,-0.60
2023-03-27T19:40:49.789Z,-0.60
2023-03-27T19:46:14.058Z,-0.50
2023-03-27T19:51:18.114Z,-0.42
2023-03-27T19:56:21.345Z,-0.40
2023-03-27T20:01:28.681Z,-0.50
2023-03-27T20:06:31.951Z,-0.60
2023-03-27T20:11:35.048Z,-0.70
2023-03-27T20:16:39.190Z,-0.80
2023-03-27T20:21:43.654Z,-0.84
2023-03-27T20:26:48.578Z,-0.90
2023-03-27T20:31:52.241Z,-1.00
2023-03-27T20:36:59.209Z,-1.06
2023-03-27T20:42:02.389Z,-1.10
2023-03-27T20:47:12.482Z,-1.20
2023-03-27T20:52:19.627Z,-1.30
2023-03-27T20:57:22.938Z,-1.40
2023-03-27T21:02:26.258Z,-1.42
2023-03-27T21:07:34.409Z,-1.50
2023-03-27T21:12:39.844Z,-1.56
2023-03-27T21:17:44.040Z,-1.60
2023-03-27T21:22:52.866Z,-1.50
2023-03-27T21:27:56.453Z,-1.50
2023-03-27T21:32:59.987Z,-1.58
2023-03-27T21:38:03.999Z,-1.60
2023-03-27T21:43:08.518Z,-1.70
2023-03-27T21:48:12.996Z,-1.70
2023-03-27T21:53:17.208Z,-1.80
2023-03-27T21:58:20.617Z,-1.80
2023-03-27T22:03:26.223Z,-1.90
2023-03-27T22:08:29.392Z,-1.90
2023-03-27T22:13:36.310Z,-2.00
2023-03-27T22:18:40.317Z,-2.08
2023-03-27T22:23:44.104Z,-2.10
2023-03-27T22:28:49.714Z,-2.14
2023-03-27T22:33:53.734Z,-2.20
2023-03-27T22:38:56.943Z,-2.20
2023-03-27T22:44:01.967Z,-2.30
2023-03-27T22:49:05.106Z,-2.24
2023-03-27T22:54:08.522Z,-2.20
2023-03-27T22:59:12.755Z,-2.18
2023-03-27T23:04:15.852Z,-2.26
2023-03-27T23:09:19.401Z,-2.30
2023-03-27T23:14:22.576Z,-2.50
2023-03-27T23:19:25.708Z,-2.60
2023-03-27T23:24:28.788Z,-2.60
2023-03-27T23:29:32.030Z,-2.70
2023-03-27T23:34:35.203Z,-2.70
2023-03-27T23:39:38.417Z,-2.80
2023-03-27T23:44:41.515Z,-2.90
2023-03-27T23:49:44.831Z,-3.00
2023-03-27T23:54:47.940Z,-3.04
2023-03-27T23:59:51.355Z,-3.10
